Time;durP1;ratioP1;P1;durP2;ratioP2;P2;SDS_P1;SDS_P2;PMS_P1;PMS_P2;Temp;Humidity;BMP_temperature;BMP_pressure;BME280_temperature;BME280_humidity;BME280_pressure;Samples;Min_cycle;Max_cycle;Signal;HPM_P1;HPM_P2
2023/11/19 00:00:20;;;;;;;4.95;4.45;;;12.00;99.90;;;;;;4985414;28;20485;-83
2023/11/19 00:02:47;;;;;;;7.30;6.57;;;12.20;99.90;;;;;;4992425;28;20056;-84
2023/11/19 00:05:13;;;;;;;7.32;6.72;;;12.10;99.90;;;;;;4992492;28;20051;-83
2023/11/19 00:07:43;;;;;;;7.05;6.38;;;12.30;99.90;;;;;;4999078;28;20035;-82
2023/11/19 00:10:13;;;;;;;6.53;5.45;;;12.30;99.90;;;;;;4974692;28;20045;-81
2023/11/19 00:12:44;;;;;;;8.02;7.22;;;12.20;99.90;;;;;;4986794;28;20510;-83
2023/11/19 00:15:11;;;;;;;5.43;4.78;;;12.30;99.90;;;;;;4979329;28;20104;-81
2023/11/19 00:17:44;;;;;;;7.60;6.55;;;12.30;99.90;;;;;;4969965;28;20026;-82
2023/11/19 00:20:11;;;;;;;6.47;5.88;;;12.30;99.90;;;;;;4976444;28;20031;-84
2023/11/19 00:22:36;;;;;;;7.68;5.13;;;12.30;99.90;;;;;;4982031;28;20105;-82
2023/11/19 00:25:03;;;;;;;7.35;5.75;;;12.30;99.90;;;;;;4991669;28;20126;-81
2023/11/19 00:27:29;;;;;;;7.82;6.70;;;12.40;99.90;;;;;;4967052;28;20114;-85
2023/11/19 00:29:54;;;;;;;8.57;6.95;;;12.40;99.90;;;;;;4982764;28;20057;-86
2023/11/19 00:32:20;;;;;;;6.55;5.55;;;12.50;99.90;;;;;;4965882;28;20029;-81
2023/11/19 00:34:47;;;;;;;7.53;5.65;;;12.50;99.90;;;;;;4976756;28;20380;-82
2023/11/19 00:37:16;;;;;;;9.35;6.90;;;12.40;99.90;;;;;;4980572;28;20046;-80
2023/11/19 00:39:43;;;;;;;5.50;5.00;;;12.50;99.90;;;;;;4978394;28;20095;-81
2023/11/19 00:42:10;;;;;;;9.23;5.53;;;12.50;99.90;;;;;;4982494;28;20030;-81
2023/11/19 00:44:36;;;;;;;9.18;6.57;;;12.50;99.90;;;;;;4979704;28;20105;-80
2023/11/19 00:47:02;;;;;;;9.48;7.25;;;12.50;99.90;;;;;;4994126;28;20360;-80
2023/11/19 00:49:28;;;;;;;9.80;5.80;;;12.60;99.90;;;;;;4984826;28;20029;-82
2023/11/19 00:51:54;;;;;;;10.88;5.93;;;12.60;99.90;;;;;;4991153;28;20023;-81
2023/11/19 00:54:20;;;;;;;7.90;4.85;;;12.60;99.90;;;;;;4967607;28;20544;-80
2023/11/19 00:56:45;;;;;;;11.10;5.38;;;12.50;99.90;;;;;;4993390;28;20122;-80
2023/11/19 00:59:11;;;;;;;10.45;5.80;;;12.50;99.90;;;;;;4994387;28;20083;-80
2023/11/19 01:01:37;;;;;;;7.50;5.60;;;12.60;99.90;;;;;;4986075;28;20391;-82
2023/11/19 01:04:03;;;;;;;7.32;4.20;;;12.70;99.90;;;;;;4993325;28;20023;-82
2023/11/19 01:06:32;;;;;;;6.38;4.00;;;12.60;99.90;;;;;;5000310;28;20137;-81
2023/11/19 01:08:58;;;;;;;7.00;4.50;;;12.60;99.90;;;;;;4996903;28;20383;-81
2023/11/19 01:11:25;;;;;;;6.97;3.60;;;12.50;99.90;;;;;;4997877;28;20474;-82
2023/11/19 01:13:51;;;;;;;9.73;5.28;;;12.50;99.90;;;;;;5000811;28;20034;-83
2023/11/19 01:16:18;;;;;;;7.75;4.43;;;12.60;99.90;;;;;;4991190;28;20042;-81
2023/11/19 01:18:44;;;;;;;9.07;4.57;;;12.60;99.90;;;;;;4983594;28;20029;-80
2023/11/19 01:21:10;;;;;;;11.05;4.03;;;12.60;99.90;;;;;;4996923;28;20058;-79
2023/11/19 01:23:37;;;;;;;7.95;3.88;;;12.60;99.90;;;;;;4998717;28;20483;-83
2023/11/19 01:26:03;;;;;;;6.63;3.08;;;12.60;99.90;;;;;;4984412;28;20114;-82
2023/11/19 01:28:28;;;;;;;10.18;3.83;;;12.50;99.90;;;;;;4995404;28;20086;-82
2023/11/19 01:30:54;;;;;;;9.82;4.40;;;12.60;99.90;;;;;;4987701;28;20034;-82
2023/11/19 01:33:21;;;;;;;9.25;4.60;;;12.60;99.90;;;;;;4989580;28;20073;-82
2023/11/19 01:35:46;;;;;;;15.32;5.50;;;12.70;99.90;;;;;;4972799;28;20384;-80
2023/11/19 01:38:12;;;;;;;12.43;5.72;;;12.80;99.90;;;;;;4982362;28;20058;-79
2023/11/19 01:40:38;;;;;;;12.82;5.00;;;12.80;99.90;;;;;;4979761;28;21048;-83
2023/11/19 01:43:04;;;;;;;10.43;4.13;;;12.90;99.90;;;;;;4987599;28;20018;-82
2023/11/19 01:45:30;;;;;;;11.52;4.55;;;12.80;99.90;;;;;;4988809;28;20023;-82
2023/11/19 01:48:05;;;;;;;7.63;3.67;;;12.80;99.90;;;;;;4989169;28;20022;-81
2023/11/19 01:50:33;;;;;;;11.30;3.75;;;12.70;99.90;;;;;;4979015;28;20042;-81
2023/11/19 01:52:58;;;;;;;9.43;2.72;;;12.80;99.90;;;;;;4983520;28;20046;-81
2023/11/19 01:55:27;;;;;;;12.02;2.95;;;12.80;99.90;;;;;;4972204;28;20064;-82
2023/11/19 01:57:54;;;;;;;7.88;2.08;;;12.80;99.90;;;;;;4998879;28;20460;-81
2023/11/19 02:00:20;;;;;;;2.75;1.52;;;12.70;99.90;;;;;;4979006;28;20387;-85
2023/11/19 02:02:47;;;;;;;5.15;1.70;;;12.70;99.90;;;;;;4984369;28;20019;-83
2023/11/19 02:05:14;;;;;;;10.68;3.63;;;12.70;99.90;;;;;;4988814;28;20042;-83
2023/11/19 02:07:40;;;;;;;9.98;2.83;;;12.70;99.90;;;;;;4985857;28;20038;-79
2023/11/19 02:10:12;;;;;;;8.60;3.38;;;12.70;99.90;;;;;;4982257;28;20022;-81
2023/11/19 02:12:42;;;;;;;9.93;3.40;;;12.80;99.90;;;;;;4980845;28;20093;-80
2023/11/19 02:15:09;;;;;;;8.95;2.47;;;12.70;99.90;;;;;;4996083;28;20039;-80
2023/11/19 02:17:37;;;;;;;7.95;2.42;;;12.70;99.90;;;;;;4980931;28;20022;-81
2023/11/19 02:20:11;;;;;;;14.25;2.97;;;12.80;99.90;;;;;;4973006;28;20034;-80
2023/11/19 02:22:37;;;;;;;11.60;2.40;;;12.70;99.90;;;;;;4976387;28;20035;-81
2023/11/19 02:25:10;;;;;;;15.07;2.33;;;12.80;99.90;;;;;;4979603;28;20031;-81
2023/11/19 02:28:01;;;;;;;18.65;2.95;;;12.80;99.90;;;;;;4978703;28;20093;-81
2023/11/19 02:30:28;;;;;;;14.65;2.53;;;12.90;99.90;;;;;;4978743;28;20122;-85
2023/11/19 02:32:57;;;;;;;16.45;2.25;;;12.80;99.90;;;;;;4978800;28;20030;-82
2023/11/19 02:35:23;;;;;;;16.63;2.55;;;12.90;99.90;;;;;;4995268;28;20121;-85
2023/11/19 02:37:49;;;;;;;23.35;3.28;;;12.90;99.90;;;;;;4966258;28;20167;-81
2023/11/19 02:40:15;;;;;;;19.13;2.90;;;12.90;99.90;;;;;;4980290;28;20022;-85
2023/11/19 02:42:40;;;;;;;18.67;2.85;;;12.90;99.90;;;;;;4998382;28;20110;-81
2023/11/19 02:45:07;;;;;;;18.95;2.72;;;12.90;99.90;;;;;;4979641;28;20033;-83
2023/11/19 02:47:34;;;;;;;19.95;2.65;;;13.00;99.90;;;;;;4996320;28;20478;-83
2023/11/19 02:50:00;;;;;;;18.95;3.05;;;13.00;99.90;;;;;;4981484;28;20046;-84
2023/11/19 02:52:26;;;;;;;12.43;2.00;;;12.90;99.90;;;;;;4968145;28;20451;-85
2023/11/19 02:54:52;;;;;;;17.50;3.58;;;12.90;99.90;;;;;;4982752;28;20070;-83
2023/11/19 02:57:21;;;;;;;18.65;2.90;;;13.00;99.90;;;;;;4978800;28;20117;-86
2023/11/19 02:59:46;;;;;;;22.73;2.80;;;12.90;99.90;;;;;;4994859;28;20081;-83
2023/11/19 03:02:12;;;;;;;22.23;2.67;;;12.90;99.90;;;;;;4988285;28;20497;-86
2023/11/19 03:04:39;;;;;;;19.55;2.67;;;12.90;99.90;;;;;;4979301;28;20040;-87
2023/11/19 03:07:07;;;;;;;19.20;2.00;;;13.00;99.90;;;;;;4988092;28;20121;-83
2023/11/19 03:09:36;;;;;;;22.17;2.30;;;12.90;99.90;;;;;;4984123;28;20035;-83
2023/11/19 03:12:02;;;;;;;24.23;2.97;;;12.80;99.90;;;;;;4978390;28;20033;-85
2023/11/19 03:14:28;;;;;;;33.75;3.50;;;12.90;99.90;;;;;;4987363;28;20030;-82
2023/11/19 03:16:54;;;;;;;22.33;2.20;;;13.00;99.90;;;;;;4986676;28;20459;-87
2023/11/19 03:19:19;;;;;;;26.60;2.83;;;12.80;99.90;;;;;;4999996;28;20023;-83
2023/11/19 03:21:45;;;;;;;28.45;2.58;;;12.80;99.90;;;;;;4992931;28;20061;-88
2023/11/19 03:24:13;;;;;;;34.17;2.83;;;12.90;99.90;;;;;;4980880;28;20775;-84
2023/11/19 03:26:39;;;;;;;23.83;2.70;;;12.90;99.90;;;;;;4970839;28;20050;-86
2023/11/19 03:29:05;;;;;;;25.40;3.17;;;12.80;99.90;;;;;;4998525;28;20030;-80
2023/11/19 03:31:30;;;;;;;25.92;2.75;;;12.80;99.90;;;;;;4986627;28;20034;-81
2023/11/19 03:33:56;;;;;;;27.35;2.90;;;12.80;99.90;;;;;;4982973;28;20077;-82
2023/11/19 03:36:22;;;;;;;20.02;2.40;;;12.70;99.90;;;;;;4978069;28;20038;-80
2023/11/19 03:38:49;;;;;;;24.63;2.05;;;12.70;99.90;;;;;;4978510;28;20388;-84
2023/11/19 03:41:16;;;;;;;24.70;3.08;;;12.70;99.90;;;;;;4994490;28;20094;-85
2023/11/19 03:43:41;;;;;;;26.42;3.00;;;12.70;99.90;;;;;;4979437;28;20118;-84
2023/11/19 03:46:20;;;;;;;27.92;3.08;;;12.60;99.90;;;;;;4983446;28;20033;-82
2023/11/19 03:48:50;;;;;;;27.58;3.67;;;12.60;99.90;;;;;;4979976;28;20025;-88
2023/11/19 03:51:16;;;;;;;25.20;2.63;;;12.50;99.90;;;;;;4965566;28;20090;-83
2023/11/19 03:53:43;;;;;;;26.92;3.10;;;12.40;99.90;;;;;;4979287;28;20417;-81
2023/11/19 03:56:12;;;;;;;28.27;2.85;;;12.40;99.90;;;;;;4977158;28;20419;-81
2023/11/19 03:58:39;;;;;;;24.58;2.33;;;12.40;99.90;;;;;;4976563;28;20039;-84
2023/11/19 04:01:13;;;;;;;28.13;3.45;;;12.30;99.90;;;;;;4976185;28;20034;-85
2023/11/19 04:03:39;;;;;;;22.83;2.20;;;12.10;99.90;;;;;;4979868;28;20027;-89
2023/11/19 04:06:05;;;;;;;24.92;1.95;;;12.10;99.90;;;;;;4981513;28;20119;-81
2023/11/19 04:08:31;;;;;;;27.15;2.35;;;12.10;99.90;;;;;;4994364;28;20057;-83
2023/11/19 04:10:57;;;;;;;26.42;3.20;;;12.00;99.90;;;;;;4979598;28;20023;-84
2023/11/19 04:13:24;;;;;;;28.90;3.15;;;12.10;99.90;;;;;;4979934;28;20050;-81
2023/11/19 04:15:50;;;;;;;27.88;3.00;;;12.00;99.90;;;;;;4980870;28;20057;-87
2023/11/19 04:18:16;;;;;;;20.60;2.45;;;11.90;99.90;;;;;;4978197;28;20038;-79
2023/11/19 04:20:42;;;;;;;28.23;3.85;;;11.90;99.90;;;;;;4977897;28;20040;-79
2023/11/19 04:23:08;;;;;;;27.17;3.20;;;11.80;99.90;;;;;;4965323;28;20502;-79
2023/11/19 04:25:35;;;;;;;30.05;2.88;;;11.80;99.90;;;;;;4976036;28;20027;-80
2023/11/19 04:28:02;;;;;;;23.60;3.05;;;11.70;99.90;;;;;;4994516;28;20054;-82
2023/11/19 04:30:28;;;;;;;23.58;1.80;;;11.70;99.90;;;;;;4990558;28;20081;-84
2023/11/19 04:32:53;;;;;;;28.38;2.67;;;11.60;99.90;;;;;;4985316;28;20431;-86
2023/11/19 04:35:19;;;;;;;33.17;3.42;;;11.60;99.90;;;;;;4989873;28;20122;-83
2023/11/19 04:37:45;;;;;;;28.55;2.92;;;11.60;99.90;;;;;;4979908;28;20034;-84
2023/11/19 04:40:11;;;;;;;29.88;3.72;;;11.50;99.90;;;;;;4992474;28;20046;-87
2023/11/19 04:42:40;;;;;;;27.77;2.78;;;11.60;99.90;;;;;;4992922;28;20034;-80
2023/11/19 04:45:07;;;;;;;26.77;3.05;;;11.60;99.90;;;;;;4979166;28;20030;-83
2023/11/19 04:47:34;;;;;;;27.13;2.67;;;11.60;99.90;;;;;;4977384;28;20129;-79
2023/11/19 04:50:00;;;;;;;26.70;2.90;;;11.60;99.90;;;;;;4992781;28;20475;-84
2023/11/19 04:52:25;;;;;;;27.85;2.85;;;11.60;99.90;;;;;;4993073;28;20137;-87
2023/11/19 04:54:51;;;;;;;26.73;3.42;;;11.60;99.90;;;;;;4995218;28;20105;-81
2023/11/19 04:57:17;;;;;;;24.90;2.55;;;11.60;99.90;;;;;;4977682;28;20483;-82
2023/11/19 04:59:42;;;;;;;28.60;2.70;;;11.60;99.90;;;;;;4992343;28;20063;-84
2023/11/19 05:02:08;;;;;;;23.60;2.67;;;11.60;99.90;;;;;;4985947;28;20030;-83
2023/11/19 05:04:34;;;;;;;28.83;2.63;;;11.60;99.90;;;;;;4974789;28;20027;-84
2023/11/19 05:07:00;;;;;;;24.27;2.50;;;11.40;99.90;;;;;;4985533;28;20038;-80
2023/11/19 05:09:26;;;;;;;28.90;2.90;;;11.50;99.90;;;;;;4977829;28;20097;-84
2023/11/19 05:11:52;;;;;;;33.17;3.33;;;11.40;99.90;;;;;;4994808;28;20031;-81
2023/11/19 05:14:21;;;;;;;30.25;3.40;;;11.40;99.90;;;;;;4976607;28;20521;-84
2023/11/19 05:16:47;;;;;;;32.90;3.73;;;11.40;99.90;;;;;;4963487;28;20030;-81
2023/11/19 05:19:14;;;;;;;25.95;2.63;;;11.40;99.90;;;;;;4980487;28;20774;-83
2023/11/19 05:21:44;;;;;;;28.38;3.13;;;11.30;99.90;;;;;;4977159;28;20031;-83
2023/11/19 05:24:11;;;;;;;25.73;3.65;;;11.30;99.90;;;;;;4982037;28;20031;-83
2023/11/19 05:26:38;;;;;;;28.73;3.38;;;11.30;99.90;;;;;;4969474;28;20031;-80
2023/11/19 05:29:04;;;;;;;26.15;2.97;;;11.20;99.90;;;;;;4990744;28;20026;-81
2023/11/19 05:31:30;;;;;;;22.73;2.95;;;11.20;99.90;;;;;;4989305;28;20027;-80
2023/11/19 05:33:56;;;;;;;32.60;3.80;;;11.30;99.90;;;;;;4981221;28;20355;-82
2023/11/19 05:36:21;;;;;;;25.63;2.58;;;11.30;99.90;;;;;;4982090;28;20038;-83
2023/11/19 05:38:47;;;;;;;31.92;3.45;;;11.30;99.90;;;;;;4985907;28;20026;-80
2023/11/19 05:41:13;;;;;;;34.38;4.15;;;11.30;99.90;;;;;;4981993;28;20398;-83
2023/11/19 05:43:40;;;;;;;35.17;4.07;;;11.40;99.90;;;;;;4992993;28;20042;-84
2023/11/19 05:46:06;;;;;;;32.67;3.03;;;11.50;99.90;;;;;;4978778;28;20415;-83
2023/11/19 05:48:32;;;;;;;32.70;3.75;;;11.50;99.90;;;;;;4967942;28;20066;-83
2023/11/19 05:50:58;;;;;;;30.52;3.15;;;11.60;99.90;;;;;;4980660;28;20065;-81
2023/11/19 05:53:24;;;;;;;36.53;4.05;;;11.50;99.90;;;;;;4978597;28;20034;-83
2023/11/19 05:55:55;;;;;;;33.58;2.90;;;11.60;99.90;;;;;;4972214;28;20471;-83
2023/11/19 05:58:28;;;;;;;25.65;2.95;;;11.60;99.90;;;;;;4979266;28;20066;-81
2023/11/19 06:01:00;;;;;;;37.13;3.95;;;11.50;99.90;;;;;;4980819;28;20030;-80
2023/11/19 06:03:26;;;;;;;42.80;4.32;;;11.50;99.90;;;;;;4966920;28;20030;-84
2023/11/19 06:05:54;;;;;;;25.20;2.70;;;11.60;99.90;;;;;;4998740;28;20054;-85
2023/11/19 06:08:20;;;;;;;38.15;4.60;;;11.50;99.90;;;;;;4980516;28;20383;-81
2023/11/19 06:10:46;;;;;;;29.73;4.03;;;11.50;99.90;;;;;;4975706;28;20081;-82
2023/11/19 06:13:15;;;;;;;30.63;3.42;;;11.50;99.90;;;;;;4967363;28;20102;-86
2023/11/19 06:15:44;;;;;;;31.42;3.92;;;11.50;99.90;;;;;;4975442;28;20066;-85
2023/11/19 06:18:12;;;;;;;34.13;4.13;;;11.50;99.90;;;;;;4986326;28;20540;-86
2023/11/19 06:20:37;;;;;;;28.92;3.15;;;11.50;99.90;;;;;;4976432;28;20037;-81
2023/11/19 06:23:03;;;;;;;35.22;3.13;;;11.60;99.90;;;;;;4979507;28;20031;-83
2023/11/19 06:25:29;;;;;;;38.60;3.25;;;11.40;99.90;;;;;;4981645;28;20418;-82
2023/11/19 06:27:54;;;;;;;27.33;4.18;;;11.40;99.90;;;;;;4978728;28;20463;-81
2023/11/19 06:30:20;;;;;;;29.10;4.10;;;11.30;99.90;;;;;;4978321;28;20080;-82
2023/11/19 06:32:46;;;;;;;26.10;3.75;;;11.30;99.90;;;;;;4989061;28;20491;-83
2023/11/19 06:35:13;;;;;;;24.27;2.08;;;11.20;99.90;;;;;;4982677;28;20042;-80
2023/11/19 06:37:40;;;;;;;31.65;3.15;;;11.20;99.90;;;;;;4984643;28;20047;-82
2023/11/19 06:40:06;;;;;;;23.15;3.53;;;11.20;99.90;;;;;;4981142;28;20037;-80
2023/11/19 06:42:33;;;;;;;28.27;3.40;;;11.20;99.90;;;;;;4967680;28;20307;-80
2023/11/19 06:44:58;;;;;;;26.63;2.92;;;11.20;99.90;;;;;;4995109;28;20034;-83
2023/11/19 06:47:28;;;;;;;24.17;2.85;;;11.20;99.90;;;;;;4996172;28;20035;-82
2023/11/19 06:49:54;;;;;;;27.60;3.22;;;11.10;99.90;;;;;;4979012;28;20031;-83
2023/11/19 06:52:20;;;;;;;31.23;3.85;;;11.10;99.90;;;;;;4982968;28;20121;-88
2023/11/19 06:54:45;;;;;;;29.63;3.53;;;11.10;99.90;;;;;;4997332;28;20519;-88
2023/11/19 06:57:11;;;;;;;29.25;2.88;;;11.10;99.90;;;;;;4965399;28;20475;-84
2023/11/19 06:59:38;;;;;;;31.48;3.22;;;11.10;99.90;;;;;;4982642;28;20030;-90
2023/11/19 07:02:04;;;;;;;32.50;3.13;;;11.10;99.90;;;;;;4984266;28;20037;-90
2023/11/19 07:04:30;;;;;;;27.23;2.90;;;11.10;99.90;;;;;;4980987;28;20030;-85
2023/11/19 07:06:57;;;;;;;25.80;2.90;;;11.10;99.90;;;;;;4997455;28;20055;-89
2023/11/19 07:09:23;;;;;;;30.60;3.33;;;11.10;99.90;;;;;;4990440;28;20412;-88
2023/11/19 07:11:51;;;;;;;38.25;4.30;;;11.20;99.90;;;;;;4987330;28;20076;-86
2023/11/19 07:14:18;;;;;;;42.80;4.50;;;11.20;99.90;;;;;;4984003;28;20030;-87
2023/11/19 07:16:44;;;;;;;40.05;3.78;;;11.20;99.90;;;;;;4968424;28;20053;-86
2023/11/19 07:19:09;;;;;;;30.45;3.28;;;11.20;99.90;;;;;;4984414;28;20043;-88
2023/11/19 07:21:39;;;;;;;33.03;3.47;;;11.10;99.90;;;;;;4979708;28;20022;-89
2023/11/19 07:24:05;;;;;;;29.25;3.65;;;11.20;99.90;;;;;;4979195;28;20031;-86
2023/11/19 07:26:31;;;;;;;35.72;3.50;;;11.30;99.90;;;;;;4976178;28;20105;-87
2023/11/19 07:28:57;;;;;;;33.10;3.58;;;11.20;99.90;;;;;;4995474;28;20030;-87
2023/11/19 07:31:24;;;;;;;29.85;3.90;;;11.20;99.90;;;;;;4981023;28;20030;-85
2023/11/19 07:33:49;;;;;;;36.17;3.60;;;11.20;99.90;;;;;;4983325;28;20519;-87
2023/11/19 07:36:15;;;;;;;28.45;3.05;;;11.20;99.90;;;;;;4996432;28;20129;-81
2023/11/19 07:38:41;;;;;;;26.35;3.10;;;11.20;99.90;;;;;;4986778;28;20042;-87
2023/11/19 07:41:06;;;;;;;32.00;3.63;;;11.00;99.90;;;;;;4985160;28;20027;-85
2023/11/19 07:43:33;;;;;;;33.00;3.42;;;11.00;99.90;;;;;;4969365;28;20093;-83
2023/11/19 07:45:59;;;;;;;31.08;3.55;;;11.10;99.90;;;;;;4998201;28;20035;-83
2023/11/19 07:48:25;;;;;;;32.33;4.05;;;11.20;99.90;;;;;;4977345;28;20546;-86
2023/11/19 07:50:52;;;;;;;31.02;3.97;;;11.20;99.90;;;;;;4997505;28;20053;-82
2023/11/19 07:53:19;;;;;;;29.42;4.18;;;11.30;99.90;;;;;;4958946;28;20034;-84
2023/11/19 07:55:44;;;;;;;23.58;2.80;;;11.40;99.90;;;;;;4977908;28;20038;-85
2023/11/19 07:58:10;;;;;;;33.17;4.25;;;11.40;99.90;;;;;;4968182;28;20033;-86
2023/11/19 08:00:37;;;;;;;30.08;3.42;;;11.40;99.90;;;;;;4982071;28;20115;-87
2023/11/19 08:03:04;;;;;;;30.70;3.75;;;11.40;99.90;;;;;;4979309;28;20455;-85
2023/11/19 08:05:30;;;;;;;32.53;3.53;;;11.40;99.90;;;;;;4975984;28;20042;-83
2023/11/19 08:07:56;;;;;;;27.40;3.97;;;11.40;99.90;;;;;;4969832;28;20026;-82
2023/11/19 08:10:22;;;;;;;29.48;3.17;;;11.40;99.90;;;;;;4990575;28;20022;-82
2023/11/19 08:12:48;;;;;;;29.40;3.13;;;11.50;99.90;;;;;;4990739;28;20031;-81
2023/11/19 08:15:14;;;;;;;27.02;2.60;;;11.40;99.90;;;;;;4976136;28;20050;-83
2023/11/19 08:17:40;;;;;;;23.48;2.38;;;11.40;99.90;;;;;;4981987;28;20400;-83
2023/11/19 08:20:10;;;;;;;25.33;3.33;;;11.30;99.90;;;;;;4964014;28;20042;-82
2023/11/19 08:22:37;;;;;;;32.67;3.60;;;11.50;99.90;;;;;;4963899;28;20026;-83
2023/11/19 08:25:04;;;;;;;24.10;2.88;;;11.50;99.90;;;;;;4987730;28;20025;-89
2023/11/19 08:27:30;;;;;;;30.15;3.72;;;11.50;99.90;;;;;;4991815;28;20031;-87
2023/11/19 08:29:56;;;;;;;24.58;2.65;;;11.60;99.90;;;;;;4981822;28;20026;-82
2023/11/19 08:32:27;;;;;;;31.40;4.03;;;11.70;99.90;;;;;;4977087;28;20604;-86
2023/11/19 08:34:52;;;;;;;26.30;3.10;;;11.80;99.90;;;;;;4991768;28;20039;-82
2023/11/19 08:37:20;;;;;;;33.17;3.15;;;11.70;99.90;;;;;;4991769;28;20032;-82
2023/11/19 08:39:47;;;;;;;29.20;2.70;;;11.70;99.90;;;;;;4986090;28;20100;-82
2023/11/19 08:42:13;;;;;;;29.42;3.08;;;11.80;99.90;;;;;;4969208;28;20031;-88
2023/11/19 08:44:43;;;;;;;21.13;1.92;;;11.70;99.90;;;;;;4991185;28;20093;-83
2023/11/19 08:47:09;;;;;;;29.48;2.65;;;11.80;99.90;;;;;;4975709;28;20505;-86
2023/11/19 08:49:35;;;;;;;29.67;3.33;;;11.80;99.90;;;;;;4966258;28;20035;-82
2023/11/19 08:52:00;;;;;;;24.23;2.60;;;11.80;99.90;;;;;;4974196;28;20039;-86
2023/11/19 08:54:26;;;;;;;30.25;2.80;;;11.90;99.90;;;;;;4990934;28;20030;-82
2023/11/19 08:56:52;;;;;;;21.58;2.38;;;11.80;99.90;;;;;;4987168;28;20034;-86
2023/11/19 08:59:18;;;;;;;23.55;3.08;;;11.80;99.90;;;;;;4975457;28;20037;-85
2023/11/19 09:01:44;;;;;;;16.42;1.73;;;11.80;99.90;;;;;;4990878;28;20521;-82
2023/11/19 09:04:10;;;;;;;23.45;2.20;;;11.80;99.90;;;;;;4972093;28;20027;-81
2023/11/19 09:06:36;;;;;;;27.35;2.67;;;11.80;99.90;;;;;;4960997;28;20154;-82
2023/11/19 09:09:02;;;;;;;22.45;2.92;;;11.90;99.90;;;;;;4972290;28;20445;-82
2023/11/19 09:11:31;;;;;;;19.02;2.00;;;11.90;99.90;;;;;;4960677;28;20034;-87
2023/11/19 09:13:57;;;;;;;28.15;2.03;;;12.00;99.90;;;;;;4976324;28;20019;-84
2023/11/19 09:16:24;;;;;;;25.42;2.05;;;12.00;99.90;;;;;;4964539;28;20043;-86
2023/11/19 09:18:50;;;;;;;21.80;2.72;;;12.00;99.90;;;;;;4988783;28;20394;-82
2023/11/19 09:21:15;;;;;;;22.48;2.20;;;11.90;99.90;;;;;;4977511;28;20050;-83
2023/11/19 09:23:41;;;;;;;22.90;2.60;;;11.90;99.90;;;;;;4959567;28;20534;-82
2023/11/19 09:26:08;;;;;;;25.98;2.25;;;11.90;99.90;;;;;;4979564;28;20026;-83
2023/11/19 09:28:34;;;;;;;28.98;4.00;;;11.90;99.90;;;;;;4964491;28;20105;-84
2023/11/19 09:30:59;;;;;;;26.35;2.67;;;11.90;99.90;;;;;;4975474;28;20464;-85
2023/11/19 09:33:26;;;;;;;25.20;2.63;;;11.90;99.90;;;;;;4963251;28;20027;-86
2023/11/19 09:35:52;;;;;;;24.42;3.30;;;11.90;99.90;;;;;;4992027;28;20039;-84
2023/11/19 09:38:17;;;;;;;25.63;2.47;;;11.90;99.90;;;;;;4981853;28;20518;-85
2023/11/19 09:40:43;;;;;;;29.80;3.40;;;11.90;99.90;;;;;;4979432;28;20026;-83
2023/11/19 09:43:09;;;;;;;24.50;2.63;;;12.00;99.90;;;;;;4976174;28;20027;-82
2023/11/19 09:45:51;;;;;;;24.17;3.28;;;12.10;99.90;;;;;;4978372;28;20385;-84
2023/11/19 09:48:18;;;;;;;24.48;2.22;;;12.10;99.90;;;;;;4976252;28;20444;-85
2023/11/19 09:50:48;;;;;;;25.73;2.30;;;12.10;99.90;;;;;;4962470;28;20057;-84
2023/11/19 09:53:16;;;;;;;;;;;12.10;99.90;;;;;;4993209;28;20041;-81
2023/11/19 09:55:42;;;;;;;20.40;2.70;;;12.40;99.90;;;;;;4991336;28;19949;-84
2023/11/19 09:58:10;;;;;;;24.90;3.70;;;12.60;99.90;;;;;;4961589;28;20057;-85
2023/11/19 10:00:37;;;;;;;33.75;3.67;;;12.60;99.90;;;;;;4964029;28;20034;-81
2023/11/19 10:03:05;;;;;;;28.40;2.90;;;12.50;99.90;;;;;;4963590;28;20026;-83
2023/11/19 10:05:31;;;;;;;23.98;3.45;;;12.50;99.90;;;;;;4978826;28;20434;-82
2023/11/19 10:07:57;;;;;;;23.02;2.85;;;12.50;99.90;;;;;;4981914;28;20486;-83
2023/11/19 10:10:23;;;;;;;18.00;1.50;;;12.50;99.90;;;;;;4985421;28;20079;-82
2023/11/19 10:12:51;;;;;;;21.27;2.42;;;12.50;99.90;;;;;;4984168;28;20552;-82
2023/11/19 10:15:22;;;;;;;20.08;2.22;;;12.50;99.90;;;;;;4976795;28;20058;-83
2023/11/19 10:17:48;;;;;;;26.33;3.35;;;12.60;99.90;;;;;;4991705;28;20065;-82
2023/11/19 10:20:14;;;;;;;24.65;3.13;;;12.60;99.90;;;;;;4990025;28;20050;-83
2023/11/19 10:22:39;;;;;;;27.17;2.38;;;12.60;99.90;;;;;;4979340;28;20031;-83
2023/11/19 10:25:23;;;;;;;29.00;3.47;;;12.70;99.90;;;;;;4981733;28;20027;-85
2023/11/19 10:27:50;;;;;;;28.73;3.53;;;12.60;99.90;;;;;;4964156;28;20730;-83
2023/11/19 10:30:34;;;;;;;24.90;2.67;;;12.70;99.90;;;;;;4960779;28;20037;-82
2023/11/19 10:33:06;;;;;;;27.55;2.90;;;12.70;99.90;;;;;;4962156;28;20054;-83
2023/11/19 10:35:33;;;;;;;24.27;2.28;;;12.70;99.90;;;;;;4974351;28;20042;-81
2023/11/19 10:38:01;;;;;;;20.48;2.90;;;12.70;99.90;;;;;;4981755;28;20034;-83
2023/11/19 10:40:40;;;;;;;24.75;2.03;;;12.70;99.90;;;;;;4964973;28;20106;-83
2023/11/19 10:43:07;;;;;;;26.80;2.30;;;12.80;99.90;;;;;;4980964;28;20034;-82
2023/11/19 10:45:33;;;;;;;24.48;2.45;;;12.80;99.90;;;;;;4975094;28;20030;-84
2023/11/19 10:47:59;;;;;;;26.13;2.75;;;12.80;99.90;;;;;;4959577;28;20038;-83
2023/11/19 10:50:29;;;;;;;20.80;2.42;;;12.80;99.90;;;;;;4988607;28;20034;-83
2023/11/19 10:52:58;;;;;;;29.20;3.08;;;12.70;99.90;;;;;;4988162;28;20026;-84
2023/11/19 10:55:41;;;;;;;32.10;3.92;;;12.70;99.90;;;;;;4974263;28;20054;-82
2023/11/19 10:58:10;;;;;;;24.50;2.10;;;12.70;99.90;;;;;;4974217;28;22516;-83
2023/11/19 11:00:44;;;;;;;21.80;2.40;;;12.90;99.90;;;;;;4962152;28;20243;-83
2023/11/19 11:03:24;;;;;;;22.88;2.50;;;13.20;99.90;;;;;;4941862;28;20058;-83
2023/11/19 11:05:52;;;;;;;25.13;2.40;;;13.40;99.90;;;;;;4970915;28;20113;-84
2023/11/19 11:08:19;;;;;;;16.92;1.63;;;13.40;99.90;;;;;;4956921;28;20968;-81
2023/11/19 11:10:53;;;;;;;18.35;2.55;;;13.40;99.90;;;;;;4971783;28;20036;-82
2023/11/19 11:13:19;;;;;;;25.35;3.33;;;13.40;99.90;;;;;;4963717;28;20379;-82
2023/11/19 11:15:49;;;;;;;28.48;3.00;;;13.80;99.90;;;;;;4962225;28;20038;-82
2023/11/19 11:18:15;;;;;;;19.40;2.08;;;13.90;99.90;;;;;;4971085;28;20125;-81
2023/11/19 11:20:41;;;;;;;23.92;2.42;;;13.80;99.90;;;;;;4956217;28;20050;-85
2023/11/19 11:23:35;;;;;;;24.52;2.60;;;13.70;99.90;;;;;;4972855;28;20224;-82
2023/11/19 11:26:29;;;;;;;22.33;2.00;;;13.70;99.90;;;;;;4972244;28;20525;-83
2023/11/19 11:29:20;;;;;;;20.40;1.85;;;13.70;99.90;;;;;;4971976;28;20380;-85
2023/11/19 11:31:58;;;;;;;27.88;2.20;;;13.60;99.90;;;;;;4987540;28;20042;-82
2023/11/19 11:35:03;;;;;;;21.58;2.15;;;13.50;99.90;;;;;;4975928;28;20514;-83
2023/11/19 11:37:36;;;;;;;23.73;2.70;;;13.60;99.90;;;;;;4933692;28;20060;-85
2023/11/19 11:40:10;;;;;;;22.27;2.08;;;13.60;99.90;;;;;;4971581;28;20344;-82
2023/11/19 11:42:36;;;;;;;25.65;2.55;;;13.60;99.90;;;;;;4970133;28;20054;-81
2023/11/19 11:45:13;;;;;;;21.88;2.03;;;13.60;99.90;;;;;;4986165;28;20487;-81
2023/11/19 11:47:45;;;;;;;18.42;1.90;;;13.60;99.90;;;;;;4986981;28;20057;-82
2023/11/19 11:50:16;;;;;;;18.33;1.10;;;13.70;99.90;;;;;;4971538;28;20739;-82
2023/11/19 11:53:15;;;;;;;17.13;1.80;;;13.60;99.90;;;;;;4986771;28;20045;-86
2023/11/19 11:55:50;;;;;;;19.15;2.22;;;13.50;99.90;;;;;;4955377;28;20255;-83
2023/11/19 11:58:26;;;;;;;23.30;2.65;;;13.40;99.90;;;;;;4986531;28;20352;-81
2023/11/19 12:00:52;;;;;;;21.80;1.98;;;13.30;99.90;;;;;;4971144;28;20040;-82
2023/11/19 12:03:24;;;;;;;22.75;2.88;;;13.20;99.90;;;;;;4968026;28;20418;-84
2023/11/19 12:05:50;;;;;;;20.85;2.22;;;13.20;99.90;;;;;;4968866;28;20662;-80
2023/11/19 12:08:25;;;;;;;19.48;1.95;;;13.10;99.90;;;;;;4954149;28;20034;-81
2023/11/19 12:10:52;;;;;;;17.63;1.75;;;13.00;99.90;;;;;;4971770;28;20081;-81
2023/11/19 12:13:21;;;;;;;13.35;1.02;;;13.00;99.90;;;;;;4970457;28;20100;-81
2023/11/19 12:15:59;;;;;;;21.02;2.08;;;13.00;99.90;;;;;;4967737;28;20590;-81
2023/11/19 12:18:29;;;;;;;18.55;1.85;;;12.90;99.90;;;;;;4970151;28;20049;-83
2023/11/19 12:20:55;;;;;;;17.02;1.60;;;12.90;99.90;;;;;;4971243;28;20031;-84
2023/11/19 12:23:22;;;;;;;22.67;1.67;;;12.70;99.90;;;;;;4969231;28;20038;-82
2023/11/19 12:25:48;;;;;;;29.50;3.00;;;12.70;99.90;;;;;;4974518;28;20041;-82
2023/11/19 12:28:17;;;;;;;30.15;3.50;;;12.70;99.90;;;;;;4980089;28;20034;-82
2023/11/19 12:30:43;;;;;;;23.98;1.88;;;12.70;99.90;;;;;;4976099;28;20097;-84
2023/11/19 12:33:10;;;;;;;20.85;2.08;;;12.80;99.90;;;;;;4973072;28;20037;-82
2023/11/19 12:35:49;;;;;;;24.95;2.33;;;12.80;99.90;;;;;;4971198;28;20042;-83
2023/11/19 12:38:20;;;;;;;22.48;2.33;;;12.90;99.90;;;;;;4979839;28;20027;-83
2023/11/19 12:40:46;;;;;;;18.80;1.33;;;13.10;99.90;;;;;;4972262;28;20129;-82